Time;durP1;ratioP1;P1;durP2;ratioP2;P2;SDS_P1;SDS_P2;PMS_P1;PMS_P2;Temp;Humidity;BMP_temperature;BMP_pressure;BME280_temperature;BME280_humidity;BME280_pressure;Samples;Min_cycle;Max_cycle;Signal;HPM_P1;HPM_P2
2022/04/24 00:01:41;;;;;;;43.60;25.17;;;8.80;99.90;;;;;;5027237;28;20046;-79
2022/04/24 00:04:09;;;;;;;41.63;24.90;;;8.70;99.90;;;;;;5035707;28;20505;-78
2022/04/24 00:06:39;;;;;;;34.42;22.58;;;8.60;99.90;;;;;;5038928;28;20485;-79
2022/04/24 00:09:06;;;;;;;36.33;22.75;;;8.60;99.90;;;;;;5039845;28;20041;-80
2022/04/24 00:11:34;;;;;;;36.45;22.65;;;8.70;99.90;;;;;;5054753;28;20486;-78
2022/04/24 00:14:07;;;;;;;35.58;23.42;;;8.60;99.90;;;;;;5038934;28;20062;-79
2022/04/24 00:16:35;;;;;;;45.72;26.40;;;8.60;99.90;;;;;;5040788;28;20061;-79
2022/04/24 00:19:02;;;;;;;45.80;27.88;;;8.60;99.90;;;;;;5041685;28;20049;-77
2022/04/24 00:21:30;;;;;;;46.15;28.38;;;8.60;99.90;;;;;;5043438;28;20048;-79
2022/04/24 00:23:59;;;;;;;47.20;28.42;;;8.50;99.90;;;;;;5040062;28;20497;-80
2022/04/24 00:26:26;;;;;;;49.15;29.33;;;8.50;99.90;;;;;;5040104;28;20042;-78
2022/04/24 00:28:54;;;;;;;57.38;35.13;;;8.50;99.90;;;;;;5038948;28;20053;-79
2022/04/24 00:31:22;;;;;;;53.25;30.90;;;8.50;99.90;;;;;;5040055;28;20564;-80
2022/04/24 00:33:49;;;;;;;52.17;31.48;;;8.50;99.90;;;;;;5040053;28;20041;-79
2022/04/24 00:36:17;;;;;;;48.72;29.90;;;8.50;99.90;;;;;;5040226;28;20060;-79
2022/04/24 00:38:44;;;;;;;46.47;27.90;;;8.40;99.90;;;;;;5041028;28;20042;-80
2022/04/24 00:41:13;;;;;;;47.30;27.08;;;8.40;99.90;;;;;;5040303;28;20128;-80
2022/04/24 00:43:41;;;;;;;40.78;25.25;;;8.50;99.90;;;;;;5045846;28;20073;-78
2022/04/24 00:46:54;;;;;;;42.10;25.90;;;8.40;99.90;;;;;;4998759;28;20129;-79
2022/04/24 00:49:22;;;;;;;43.55;23.35;;;8.30;99.90;;;;;;4983093;28;20118;-79
2022/04/24 00:51:50;;;;;;;31.73;18.58;;;8.30;99.90;;;;;;5020339;28;20054;-80
2022/04/24 00:54:17;;;;;;;35.30;21.85;;;8.30;99.90;;;;;;5047038;28;20114;-78
2022/04/24 00:56:46;;;;;;;36.00;21.83;;;8.30;99.90;;;;;;5048492;28;20055;-79
2022/04/24 00:59:16;;;;;;;33.10;21.75;;;8.20;99.90;;;;;;5029010;28;20046;-78
2022/04/24 01:01:44;;;;;;;36.97;22.75;;;8.20;99.90;;;;;;5032307;28;20037;-77
2022/04/24 01:04:12;;;;;;;40.20;24.27;;;8.20;99.90;;;;;;5041674;28;20060;-77
2022/04/24 01:06:41;;;;;;;34.55;21.23;;;8.20;99.90;;;;;;5047245;28;20079;-78
2022/04/24 01:09:13;;;;;;;28.98;17.75;;;8.20;99.90;;;;;;5030793;28;20124;-77
2022/04/24 01:11:42;;;;;;;27.65;16.10;;;8.30;99.90;;;;;;5032108;28;20048;-77
2022/04/24 01:14:11;;;;;;;26.88;17.58;;;8.30;99.90;;;;;;5039928;28;20045;-78
2022/04/24 01:16:39;;;;;;;30.92;18.30;;;8.30;99.90;;;;;;5039214;28;20129;-78
2022/04/24 01:19:07;;;;;;;24.73;16.95;;;8.30;99.90;;;;;;5037287;28;20481;-78
2022/04/24 01:21:36;;;;;;;31.38;18.77;;;8.30;99.90;;;;;;5040500;28;20030;-78
2022/04/24 01:24:07;;;;;;;30.33;17.88;;;8.30;99.90;;;;;;5038364;28;20046;-77
2022/04/24 01:26:35;;;;;;;32.75;17.73;;;8.30;99.90;;;;;;5039654;28;20049;-78
2022/04/24 01:29:04;;;;;;;30.40;18.63;;;8.20;99.90;;;;;;5042491;28;20428;-77
2022/04/24 01:31:32;;;;;;;27.27;17.15;;;8.20;99.90;;;;;;5040482;28;20046;-78
2022/04/24 01:33:59;;;;;;;31.73;19.30;;;8.20;99.90;;;;;;5039673;28;20440;-77
2022/04/24 01:36:27;;;;;;;32.03;18.63;;;8.10;99.90;;;;;;5038515;28;20041;-78
2022/04/24 01:38:56;;;;;;;27.83;17.70;;;8.00;99.90;;;;;;5037706;28;20045;-79
2022/04/24 01:41:23;;;;;;;27.83;15.73;;;8.00;99.90;;;;;;5037321;28;20069;-77
2022/04/24 01:43:51;;;;;;;45.53;28.35;;;8.00;99.90;;;;;;5038025;28;20065;-79
2022/04/24 01:46:18;;;;;;;26.42;16.58;;;8.00;99.90;;;;;;5038798;28;20041;-78
2022/04/24 01:48:46;;;;;;;21.13;13.00;;;8.00;99.90;;;;;;5037709;28;20044;-78
2022/04/24 01:51:14;;;;;;;21.25;13.07;;;8.00;99.90;;;;;;5038334;28;20041;-78
2022/04/24 01:53:43;;;;;;;22.98;12.55;;;8.00;99.90;;;;;;5038196;28;20445;-78
2022/04/24 01:56:13;;;;;;;23.30;13.40;;;8.10;99.90;;;;;;5039681;28;20549;-79
2022/04/24 01:58:41;;;;;;;23.25;14.05;;;8.10;99.90;;;;;;5036918;28;20045;-78
2022/04/24 02:01:09;;;;;;;22.45;13.15;;;8.10;99.90;;;;;;5032477;28;20053;-79
2022/04/24 02:03:37;;;;;;;20.40;13.27;;;8.10;99.90;;;;;;5034932;28;20536;-77
2022/04/24 02:06:06;;;;;;;23.42;13.40;;;8.10;99.90;;;;;;5030546;28;20041;-79
2022/04/24 02:08:35;;;;;;;22.75;14.18;;;8.10;99.90;;;;;;5017939;28;20462;-79
2022/04/24 02:11:03;;;;;;;25.15;14.05;;;8.10;99.90;;;;;;5024574;28;20042;-76
2022/04/24 02:13:33;;;;;;;21.73;13.55;;;8.00;99.90;;;;;;5026986;28;20052;-78
2022/04/24 02:16:00;;;;;;;25.40;14.70;;;8.00;99.90;;;;;;5033539;28;20051;-78
2022/04/24 02:18:28;;;;;;;21.83;13.98;;;8.00;99.90;;;;;;5033101;28;20587;-78
2022/04/24 02:20:55;;;;;;;21.73;12.70;;;8.00;99.90;;;;;;5037166;28;20046;-79
2022/04/24 02:23:23;;;;;;;26.25;13.93;;;8.10;99.90;;;;;;5037117;28;20052;-79
2022/04/24 02:25:50;;;;;;;18.67;12.10;;;8.10;99.90;;;;;;5037508;28;20053;-78
2022/04/24 02:28:17;;;;;;;22.67;12.90;;;8.10;99.90;;;;;;5037619;28;20045;-78
2022/04/24 02:30:46;;;;;;;19.77;13.00;;;8.10;99.90;;;;;;5037814;28;20417;-78
2022/04/24 02:33:14;;;;;;;18.20;11.25;;;8.00;99.90;;;;;;5028912;28;20041;-79
2022/04/24 02:35:41;;;;;;;17.40;11.63;;;8.00;99.90;;;;;;5050575;28;20053;-78
2022/04/24 02:38:09;;;;;;;21.70;13.05;;;8.00;99.90;;;;;;5049543;28;20057;-78
2022/04/24 02:40:37;;;;;;;25.35;14.05;;;8.00;99.90;;;;;;5036136;28;20053;-78
2022/04/24 02:43:05;;;;;;;20.65;12.43;;;7.90;99.90;;;;;;5036170;28;20042;-78
2022/04/24 02:45:33;;;;;;;21.67;13.35;;;7.90;99.90;;;;;;5037685;28;20137;-77
2022/04/24 02:48:03;;;;;;;22.23;13.38;;;7.90;99.90;;;;;;5035925;28;20052;-78
2022/04/24 02:50:30;;;;;;;24.95;13.88;;;7.80;99.90;;;;;;5038116;28;20077;-78
2022/04/24 02:52:58;;;;;;;27.73;16.23;;;7.80;99.90;;;;;;5036147;28;20052;-77
2022/04/24 02:55:26;;;;;;;26.65;15.75;;;7.90;99.90;;;;;;5037646;28;20403;-77
2022/04/24 02:57:55;;;;;;;23.40;13.75;;;7.80;99.90;;;;;;5036860;28;20095;-78
2022/04/24 03:00:24;;;;;;;23.40;13.65;;;7.90;99.90;;;;;;5038638;28;20046;-79
2022/04/24 03:02:53;;;;;;;15.77;10.43;;;7.90;99.90;;;;;;5053066;28;20073;-78
2022/04/24 03:05:24;;;;;;;15.68;9.00;;;7.90;99.90;;;;;;5037786;28;20045;-78
2022/04/24 03:07:52;;;;;;;17.02;9.95;;;7.90;99.90;;;;;;5038996;28;20053;-78
2022/04/24 03:10:20;;;;;;;17.83;9.95;;;7.90;99.90;;;;;;5038400;28;20121;-78
2022/04/24 03:12:47;;;;;;;19.35;11.93;;;7.90;99.90;;;;;;5038156;28;20048;-77
2022/04/24 03:15:16;;;;;;;18.05;9.70;;;7.90;99.90;;;;;;5039699;28;20434;-79
2022/04/24 03:17:44;;;;;;;17.15;9.73;;;8.00;99.90;;;;;;5031781;28;20049;-78
2022/04/24 03:20:13;;;;;;;15.38;8.60;;;7.90;99.90;;;;;;5037664;28;20044;-77
2022/04/24 03:22:42;;;;;;;16.27;9.40;;;7.90;99.90;;;;;;5053830;28;20126;-78
2022/04/24 03:25:11;;;;;;;15.98;9.00;;;7.90;99.90;;;;;;5038165;28;20124;-77
2022/04/24 03:27:39;;;;;;;21.05;11.90;;;7.90;99.90;;;;;;5054882;28;20140;-78
2022/04/24 03:30:08;;;;;;;16.70;10.93;;;7.90;99.90;;;;;;5038414;28;20046;-77
2022/04/24 03:32:37;;;;;;;20.58;9.15;;;7.80;99.90;;;;;;5038657;28;20038;-78
2022/04/24 03:35:06;;;;;;;17.38;9.80;;;7.90;99.90;;;;;;5038000;28;20053;-78
2022/04/24 03:37:34;;;;;;;22.63;12.25;;;7.90;99.90;;;;;;5039387;28;20065;-78
2022/04/24 03:40:03;;;;;;;16.35;9.85;;;7.90;99.90;;;;;;5039532;28;20049;-79
2022/04/24 03:42:30;;;;;;;20.17;10.07;;;8.00;99.90;;;;;;5034688;28;20060;-78
2022/04/24 03:44:58;;;;;;;19.73;9.60;;;8.00;99.90;;;;;;5033486;28;20068;-78
2022/04/24 03:47:26;;;;;;;17.70;9.05;;;8.00;99.90;;;;;;5029603;28;20046;-78
2022/04/24 03:49:53;;;;;;;16.67;9.93;;;8.10;99.90;;;;;;5021510;28;20045;-78
2022/04/24 03:52:21;;;;;;;20.15;10.40;;;8.10;99.90;;;;;;5015484;28;20075;-78
2022/04/24 03:54:48;;;;;;;19.27;10.32;;;8.20;99.90;;;;;;5023633;28;20140;-79
2022/04/24 03:57:18;;;;;;;18.15;9.82;;;8.20;99.90;;;;;;5035100;28;20051;-78
2022/04/24 03:59:45;;;;;;;18.40;10.88;;;8.20;99.90;;;;;;5036363;28;20049;-79
2022/04/24 04:02:13;;;;;;;22.23;13.10;;;8.20;99.90;;;;;;5035925;28;20050;-79
2022/04/24 04:04:40;;;;;;;23.08;13.02;;;8.30;99.90;;;;;;5036690;28;20048;-77
2022/04/24 04:07:08;;;;;;;21.38;13.15;;;8.20;99.90;;;;;;5036260;28;20095;-78
2022/04/24 04:09:35;;;;;;;21.17;12.07;;;8.30;99.90;;;;;;5036817;28;20046;-79
2022/04/24 04:12:03;;;;;;;21.27;12.23;;;8.40;99.90;;;;;;5037581;28;20045;-78
2022/04/24 04:14:32;;;;;;;22.55;11.63;;;8.40;99.90;;;;;;5035469;28;20046;-78
2022/04/24 04:16:59;;;;;;;14.15;8.27;;;8.50;99.90;;;;;;5035366;28;20038;-77
2022/04/24 04:19:27;;;;;;;14.30;7.47;;;8.60;99.90;;;;;;5035937;28;20054;-78
2022/04/24 04:21:54;;;;;;;24.30;11.63;;;8.70;99.90;;;;;;5030963;28;20045;-78
2022/04/24 04:24:21;;;;;;;19.75;10.63;;;8.70;99.90;;;;;;5029832;28;20444;-78
2022/04/24 04:26:49;;;;;;;26.23;11.75;;;8.70;99.90;;;;;;5032929;28;20050;-78
2022/04/24 04:29:16;;;;;;;21.65;13.05;;;8.80;99.90;;;;;;5030828;28;20046;-78
2022/04/24 04:31:45;;;;;;;23.80;12.15;;;8.70;99.90;;;;;;5040003;28;20072;-78
2022/04/24 04:34:13;;;;;;;18.63;10.55;;;8.70;99.90;;;;;;5032829;28;20045;-79
2022/04/24 04:36:40;;;;;;;21.92;11.50;;;8.60;99.90;;;;;;5032404;28;20056;-78
2022/04/24 04:39:07;;;;;;;18.75;9.93;;;8.60;99.90;;;;;;5037627;28;20049;-80
2022/04/24 04:41:35;;;;;;;18.95;9.68;;;8.70;99.90;;;;;;5033461;28;20069;-80
2022/04/24 04:44:02;;;;;;;16.25;9.88;;;8.80;99.90;;;;;;5041757;28;20105;-79
2022/04/24 04:46:30;;;;;;;15.25;8.80;;;8.80;99.90;;;;;;5042235;28;20512;-79
2022/04/24 04:48:59;;;;;;;16.00;8.15;;;8.90;99.90;;;;;;5041030;28;20042;-78
2022/04/24 04:51:26;;;;;;;15.57;8.40;;;8.90;99.90;;;;;;5040596;28;20042;-78
2022/04/24 04:53:55;;;;;;;16.17;9.30;;;9.00;99.90;;;;;;5039126;28;20054;-80
2022/04/24 04:56:23;;;;;;;19.77;10.32;;;9.10;99.90;;;;;;5054103;28;20052;-79
2022/04/24 04:58:51;;;;;;;15.45;9.35;;;9.10;99.90;;;;;;5041391;28;20072;-79
2022/04/24 05:01:19;;;;;;;21.63;11.50;;;9.20;99.90;;;;;;5035575;28;20489;-80
2022/04/24 05:03:46;;;;;;;16.08;10.10;;;9.20;99.90;;;;;;5052312;28;20042;-81
2022/04/24 05:06:16;;;;;;;16.92;9.98;;;9.20;99.90;;;;;;5020962;28;20483;-80
2022/04/24 05:08:43;;;;;;;23.90;12.82;;;9.20;99.90;;;;;;5036922;28;20103;-80
2022/04/24 05:11:11;;;;;;;24.23;12.07;;;9.20;99.90;;;;;;5040794;28;20046;-81
2022/04/24 05:13:38;;;;;;;39.53;21.40;;;9.30;99.90;;;;;;5039527;28;20045;-79
2022/04/24 05:16:07;;;;;;;54.35;29.67;;;9.30;99.90;;;;;;5038195;28;20034;-80
2022/04/24 05:18:34;;;;;;;47.08;27.83;;;9.30;99.90;;;;;;5042874;28;20493;-81
2022/04/24 05:21:02;;;;;;;54.33;27.88;;;9.40;99.90;;;;;;5038468;28;20043;-80
2022/04/24 05:23:30;;;;;;;76.53;41.83;;;9.40;99.90;;;;;;5053149;28;20489;-81
2022/04/24 05:25:58;;;;;;;73.65;41.45;;;9.50;99.90;;;;;;5041208;28;20045;-80
2022/04/24 05:28:25;;;;;;;80.65;46.03;;;9.50;99.90;;;;;;5041023;28;20050;-80
2022/04/24 05:30:54;;;;;;;75.22;46.08;;;9.60;99.90;;;;;;5039444;28;20141;-80
2022/04/24 05:33:21;;;;;;;59.17;34.95;;;9.80;99.90;;;;;;5038535;28;20049;-80
2022/04/24 05:35:50;;;;;;;38.08;25.02;;;9.70;99.90;;;;;;5040089;28;20045;-79
2022/04/24 05:38:18;;;;;;;26.75;15.57;;;9.70;99.90;;;;;;5039818;28;20156;-76
2022/04/24 05:40:47;;;;;;;20.75;11.75;;;9.80;99.90;;;;;;5044738;28;20049;-78
2022/04/24 05:43:14;;;;;;;23.65;12.30;;;9.70;99.90;;;;;;5053666;28;20060;-75
2022/04/24 05:45:41;;;;;;;22.13;11.65;;;9.80;99.90;;;;;;5037957;28;20068;-76
2022/04/24 05:48:09;;;;;;;24.27;12.38;;;9.90;99.90;;;;;;5026229;28;20053;-76
2022/04/24 05:50:37;;;;;;;18.42;11.35;;;9.90;99.90;;;;;;5026097;28;20048;-76
2022/04/24 05:53:04;;;;;;;19.38;11.07;;;10.00;99.90;;;;;;5034361;28;20057;-77
2022/04/24 05:55:32;;;;;;;22.30;11.85;;;10.10;99.90;;;;;;5034105;28;20046;-77
2022/04/24 05:58:00;;;;;;;19.40;12.85;;;10.10;99.90;;;;;;5034886;28;20064;-76
2022/04/24 06:00:28;;;;;;;24.80;14.68;;;10.20;99.90;;;;;;5033733;28;20049;-76
2022/04/24 06:02:55;;;;;;;26.08;14.90;;;10.20;99.90;;;;;;5033364;28;20057;-76
2022/04/24 06:05:23;;;;;;;30.42;18.98;;;10.30;99.90;;;;;;5034932;28;20045;-77
2022/04/24 06:07:51;;;;;;;35.28;20.67;;;10.30;99.90;;;;;;5032597;28;20080;-77
2022/04/24 06:10:19;;;;;;;23.70;15.63;;;10.40;99.90;;;;;;5033430;28;20052;-76
2022/04/24 06:12:48;;;;;;;25.90;16.13;;;10.50;99.90;;;;;;5052113;28;20417;-77
2022/04/24 06:15:20;;;;;;;26.65;15.65;;;10.60;99.90;;;;;;5037752;28;20045;-76
2022/04/24 06:17:48;;;;;;;26.13;15.55;;;10.80;99.90;;;;;;5037631;28;20455;-77
2022/04/24 06:20:16;;;;;;;27.50;16.42;;;10.90;99.90;;;;;;5038527;28;20044;-76
2022/04/24 06:22:44;;;;;;;25.05;15.93;;;11.00;99.90;;;;;;5041910;28;20048;-77
2022/04/24 06:25:16;;;;;;;24.05;15.57;;;11.10;99.90;;;;;;5039263;28;20124;-77
2022/04/24 06:27:44;;;;;;;27.38;15.65;;;11.20;99.90;;;;;;5026783;28;20065;-75
2022/04/24 06:30:11;;;;;;;27.48;17.63;;;11.20;99.90;;;;;;5042875;28;20090;-75
2022/04/24 06:32:41;;;;;;;28.27;17.13;;;11.30;99.90;;;;;;5045106;28;20064;-76
2022/04/24 06:35:11;;;;;;;26.85;15.88;;;11.40;99.90;;;;;;5039843;28;20051;-76
2022/04/24 06:37:39;;;;;;;33.97;16.83;;;11.50;99.90;;;;;;5035326;28;20477;-76
2022/04/24 06:40:08;;;;;;;24.65;17.13;;;11.60;99.90;;;;;;5032103;28;20587;-74
2022/04/24 06:42:36;;;;;;;22.98;15.85;;;11.70;99.90;;;;;;5022013;28;20612;-76
2022/04/24 06:45:04;;;;;;;31.50;20.08;;;12.10;99.90;;;;;;5032103;28;20076;-76
2022/04/24 06:47:32;;;;;;;40.35;25.65;;;12.30;99.90;;;;;;5032490;28;20045;-76
2022/04/24 06:50:00;;;;;;;27.88;20.77;;;12.30;99.90;;;;;;5046260;28;20041;-75
2022/04/24 06:52:28;;;;;;;26.58;17.33;;;12.30;99.90;;;;;;5019782;28;20105;-77
2022/04/24 06:54:55;;;;;;;25.30;16.05;;;12.50;99.90;;;;;;5034540;28;20091;-76
2022/04/24 06:57:24;;;;;;;27.35;17.38;;;12.70;99.90;;;;;;5033555;28;20045;-76
2022/04/24 06:59:51;;;;;;;27.33;18.60;;;12.90;99.90;;;;;;5033728;28;20049;-76
2022/04/24 07:02:18;;;;;;;28.42;19.23;;;13.20;99.90;;;;;;5050567;28;20392;-76
2022/04/24 07:04:46;;;;;;;33.47;22.70;;;13.30;99.90;;;;;;5034811;28;20111;-77
2022/04/24 07:07:15;;;;;;;39.25;25.05;;;13.40;99.90;;;;;;5036057;28;20096;-75
2022/04/24 07:09:43;;;;;;;37.72;25.15;;;13.60;99.90;;;;;;5015037;28;20065;-76
2022/04/24 07:12:11;;;;;;;37.47;24.25;;;13.90;99.90;;;;;;5044475;28;20089;-76
2022/04/24 07:14:38;;;;;;;36.35;24.02;;;14.10;99.90;;;;;;5032939;28;20044;-76
2022/04/24 07:17:06;;;;;;;34.97;24.60;;;14.20;99.90;;;;;;5033014;28;20038;-76
2022/04/24 07:19:33;;;;;;;35.60;23.77;;;14.30;99.90;;;;;;5024341;28;20069;-75
2022/04/24 07:22:01;;;;;;;35.28;23.25;;;14.30;99.90;;;;;;5033062;28;20046;-76
2022/04/24 07:24:29;;;;;;;31.80;21.27;;;14.50;99.90;;;;;;5032404;28;20033;-77
2022/04/24 07:26:57;;;;;;;29.90;21.35;;;14.80;99.90;;;;;;5030052;28;20048;-75
2022/04/24 07:29:24;;;;;;;27.15;18.15;;;15.10;99.90;;;;;;5028728;28;20034;-76
2022/04/24 07:31:53;;;;;;;32.00;18.40;;;15.40;99.90;;;;;;5026563;28;20056;-76
2022/04/24 07:34:20;;;;;;;28.85;16.95;;;15.50;99.90;;;;;;5021557;28;20034;-76
2022/04/24 07:36:48;;;;;;;27.70;17.20;;;15.40;99.90;;;;;;5015674;28;20573;-76
2022/04/24 07:39:15;;;;;;;25.50;17.52;;;15.60;99.90;;;;;;5047018;28;20053;-75
2022/04/24 07:41:44;;;;;;;29.48;18.52;;;15.90;99.90;;;;;;5033153;28;20045;-76
2022/04/24 07:44:11;;;;;;;37.85;19.92;;;16.00;99.90;;;;;;5037796;28;20037;-75
2022/04/24 07:46:39;;;;;;;33.15;21.52;;;16.20;99.90;;;;;;5024771;28;20567;-75
2022/04/24 07:49:06;;;;;;;37.67;23.23;;;16.50;99.90;;;;;;5029158;28;20045;-76
2022/04/24 07:51:34;;;;;;;40.55;26.40;;;16.50;99.90;;;;;;5032921;28;20512;-75
2022/04/24 07:54:01;;;;;;;37.95;24.92;;;16.70;99.90;;;;;;5048359;28;20045;-75
2022/04/24 07:56:28;;;;;;;40.22;25.23;;;16.80;99.90;;;;;;5055220;28;20060;-75
2022/04/24 07:58:58;;;;;;;30.40;19.50;;;17.10;99.90;;;;;;5044858;28;20052;-76
2022/04/24 08:01:25;;;;;;;29.92;18.98;;;17.40;99.90;;;;;;5036811;28;20116;-74
2022/04/24 08:03:52;;;;;;;31.52;20.38;;;17.00;99.90;;;;;;5036486;28;20048;-75
2022/04/24 08:06:20;;;;;;;32.47;20.40;;;17.00;99.90;;;;;;5036772;28;20087;-75
2022/04/24 08:08:47;;;;;;;30.88;19.67;;;17.20;99.90;;;;;;5037189;28;20512;-75
2022/04/24 08:11:14;;;;;;;37.63;19.35;;;17.40;99.90;;;;;;5036825;28;20056;-75
2022/04/24 08:13:42;;;;;;;30.27;19.08;;;17.70;99.90;;;;;;5036241;28;20376;-75
2022/04/24 08:16:11;;;;;;;39.60;26.42;;;17.70;99.90;;;;;;5048377;28;20059;-76
2022/04/24 08:18:38;;;;;;;52.35;30.13;;;17.90;99.90;;;;;;5055526;28;20048;-74
2022/04/24 08:21:05;;;;;;;40.15;25.50;;;18.20;99.90;;;;;;5039298;28;20041;-75
2022/04/24 08:23:33;;;;;;;336.83;78.85;;;18.40;99.90;;;;;;5034875;28;20129;-74
2022/04/24 08:26:00;;;;;;;35.75;24.75;;;18.60;99.90;;;;;;5035749;28;20050;-74
2022/04/24 08:28:28;;;;;;;34.05;22.88;;;18.80;99.90;;;;;;5022732;28;20085;-76
2022/04/24 08:30:57;;;;;;;33.65;23.20;;;18.70;99.90;;;;;;5028583;28;20076;-75
2022/04/24 08:33:25;;;;;;;38.35;25.40;;;19.00;99.90;;;;;;5035385;28;20057;-74
2022/04/24 08:35:53;;;;;;;35.88;24.10;;;19.30;99.90;;;;;;5032488;28;20076;-73
2022/04/24 08:38:20;;;;;;;36.83;24.90;;;19.40;99.90;;;;;;5031227;28;20048;-76
2022/04/24 08:40:48;;;;;;;38.33;25.55;;;19.20;99.90;;;;;;5030746;28;20042;-74
2022/04/24 08:43:17;;;;;;;34.17;21.75;;;19.50;99.90;;;;;;5025848;28;20053;-74
2022/04/24 08:45:47;;;;;;;37.13;22.65;;;19.70;99.90;;;;;;5031300;28;20038;-79
2022/04/24 08:48:15;;;;;;;33.67;22.65;;;19.90;99.90;;;;;;5051781;28;20048;-76
2022/04/24 08:50:44;;;;;;;34.53;20.05;;;20.10;99.90;;;;;;5044107;28;20049;-79
2022/04/24 08:53:13;;;;;;;29.25;18.25;;;20.30;99.90;;;;;;5037058;28;20058;-79
2022/04/24 08:55:41;;;;;;;26.77;15.27;;;20.40;99.90;;;;;;5037024;28;20042;-79
2022/04/24 08:58:08;;;;;;;21.88;13.13;;;20.40;99.90;;;;;;5038928;28;20038;-78
2022/04/24 09:00:35;;;;;;;26.00;15.35;;;20.50;99.90;;;;;;5045770;28;20045;-79
2022/04/24 09:03:03;;;;;;;20.17;13.65;;;21.00;99.90;;;;;;5031270;28;20382;-78
2022/04/24 09:05:31;;;;;;;21.25;10.18;;;21.50;99.90;;;;;;5027877;28;20053;-77
2022/04/24 09:08:08;;;;;;;23.05;10.85;;;21.50;99.90;;;;;;5034957;28;20076;-79
2022/04/24 09:10:50;;;;;;;15.82;10.45;;;21.40;99.90;;;;;;5021113;28;20073;-79
2022/04/24 09:13:30;;;;;;;14.80;10.48;;;21.50;99.90;;;;;;5018824;28;20046;-78
2022/04/24 09:15:58;;;;;;;19.00;10.23;;;21.70;99.90;;;;;;5021161;28;20493;-79
2022/04/24 09:18:38;;;;;;;26.55;17.70;;;22.10;99.90;;;;;;5020298;28;20048;-78
2022/04/24 09:21:05;;;;;;;28.25;15.88;;;22.40;99.90;;;;;;5019813;28;20096;-79
2022/04/24 09:23:38;;;;;;;19.60;11.93;;;22.60;99.90;;;;;;5020363;28;20050;-79
2022/04/24 09:26:06;;;;;;;18.85;11.18;;;22.70;99.90;;;;;;5019481;28;20157;-79
2022/04/24 09:28:37;;;;;;;18.10;10.68;;;22.70;99.90;;;;;;5037962;28;20477;-78
2022/04/24 09:31:05;;;;;;;18.27;10.75;;;22.60;99.90;;;;;;5037689;28;20054;-79
2022/04/24 09:33:40;;;;;;;19.58;10.82;;;22.60;99.90;;;;;;5040459;28;20052;-79
2022/04/24 09:36:08;;;;;;;16.58;11.15;;;22.90;99.90;;;;;;5040248;28;20037;-78
2022/04/24 09:38:43;;;;;;;18.45;11.40;;;23.10;99.90;;;;;;5039369;28;20103;-76
2022/04/24 09:41:21;;;;;;;13.25;6.43;;;23.10;99.90;;;;;;5035021;28;20116;-79
2022/04/24 09:43:49;;;;;;;18.15;10.15;;;23.20;99.60;;;;;;5034941;28;20045;-79
2022/04/24 09:46:26;;;;;;;19.98;13.32;;;23.10;99.90;;;;;;5038194;28;20041;-79
2022/04/24 09:48:57;;;;;;;18.88;11.45;;;23.30;99.90;;;;;;5039271;28;20071;-79
2022/04/24 09:51:24;;;;;;;15.27;9.27;;;23.40;99.90;;;;;;5031884;28;20536;-78
2022/04/24 09:53:58;;;;;;;13.52;8.55;;;23.50;99.90;;;;;;5027386;28;20061;-78
2022/04/24 09:56:27;;;;;;;14.95;6.90;;;23.60;99.40;;;;;;5029357;28;20052;-75
2022/04/24 09:58:55;;;;;;;11.50;6.57;;;23.60;97.30;;;;;;5039177;28;20041;-78
2022/04/24 10:01:23;;;;;;;15.05;7.55;;;23.70;96.60;;;;;;5037673;28;20037;-77
2022/04/24 10:03:51;;;;;;;14.02;7.13;;;23.60;96.30;;;;;;5034704;28;20527;-77
2022/04/24 10:06:22;;;;;;;12.60;4.93;;;23.70;95.80;;;;;;5036304;28;20076;-78
2022/04/24 10:08:51;;;;;;;12.55;5.85;;;23.70;94.40;;;;;;5033731;28;20045;-77
2022/04/24 10:11:20;;;;;;;11.85;5.32;;;23.80;95.00;;;;;;5046750;28;20420;-77
2022/04/24 10:13:51;;;;;;;15.50;7.35;;;23.90;94.80;;;;;;5032251;28;20137;-78
2022/04/24 10:16:47;;;;;;;11.60;5.70;;;24.00;94.50;;;;;;5033685;28;20095;-78
2022/04/24 10:19:24;;;;;;;14.32;8.13;;;24.00;94.00;;;;;;5023452;28;20425;-76
2022/04/24 10:22:04;;;;;;;9.00;5.05;;;24.10;93.50;;;;;;5026582;28;20133;-77
2022/04/24 10:24:40;;;;;;;8.48;3.63;;;24.10;93.20;;;;;;5024581;28;20034;-78
2022/04/24 10:27:11;;;;;;;7.20;3.28;;;23.90;92.30;;;;;;5027662;28;20045;-78
2022/04/24 10:29:50;;;;;;;5.90;3.10;;;23.80;91.80;;;;;;5029396;28;20052;-76
2022/04/24 10:32:26;;;;;;;8.57;3.65;;;23.70;91.30;;;;;;5033970;28;20045;-77
2022/04/24 10:34:54;;;;;;;9.85;3.70;;;23.70;91.10;;;;;;5028382;28;20052;-77
2022/04/24 10:37:29;;;;;;;8.60;3.65;;;23.80;90.90;;;;;;5035482;28;20041;-78
2022/04/24 10:39:58;;;;;;;9.53;3.50;;;23.80;90.50;;;;;;5035051;28;20049;-78
2022/04/24 10:42:35;;;;;;;19.60;4.60;;;23.60;88.70;;;;;;5044039;28;20090;-77
2022/04/24 10:45:10;;;;;;;6.35;2.53;;;23.60;89.60;;;;;;5055547;28;20048;-77
2022/04/24 10:47:43;;;;;;;6.68;2.80;;;23.40;88.10;;;;;;5055801;28;20122;-77
2022/04/24 10:50:11;;;;;;;9.68;2.80;;;23.50;86.30;;;;;;5055995;28;20041;-75
2022/04/24 10:52:39;;;;;;;18.05;2.78;;;23.70;87.40;;;;;;5044947;28;20061;-78
2022/04/24 10:55:12;;;;;;;11.25;4.07;;;23.80;84.50;;;;;;5035061;28;20128;-77
2022/04/24 10:57:46;;;;;;;6.93;3.30;;;24.00;86.50;;;;;;5046465;28;20078;-78
2022/04/24 11:00:22;;;;;;;13.73;3.28;;;24.20;87.00;;;;;;5057369;28;20037;-78
2022/04/24 11:02:51;;;;;;;12.10;3.47;;;24.10;87.50;;;;;;5056947;28;20055;-78
2022/04/24 11:05:21;;;;;;;12.02;3.83;;;24.10;90.00;;;;;;5053300;28;20041;-77
2022/04/24 11:07:48;;;;;;;8.75;3.10;;;23.90;91.20;;;;;;5028438;28;20116;-77
2022/04/24 11:10:21;;;;;;;14.43;2.80;;;23.50;91.60;;;;;;5034797;28;20068;-76
2022/04/24 11:12:54;;;;;;;12.30;3.10;;;23.00;92.10;;;;;;5047006;28;20037;-77
2022/04/24 11:15:29;;;;;;;11.95;3.03;;;22.70;92.40;;;;;;5041387;28;20039;-76
2022/04/24 11:17:57;;;;;;;12.43;3.50;;;22.60;93.10;;;;;;5054690;28;20053;-77
2022/04/24 11:20:29;;;;;;;8.43;2.67;;;22.70;93.50;;;;;;5053248;28;20049;-76
2022/04/24 11:22:57;;;;;;;9.02;3.10;;;22.60;93.90;;;;;;5051472;28;20038;-77
2022/04/24 11:25:27;;;;;;;6.18;2.92;;;22.40;94.00;;;;;;5054632;28;20057;-77
2022/04/24 11:27:58;;;;;;;8.60;4.50;;;22.30;94.20;;;;;;5036520;28;20049;-78
2022/04/24 11:30:31;;;;;;;9.45;3.50;;;22.00;94.30;;;;;;5035154;28;20049;-78
2022/04/24 11:33:03;;;;;;;15.07;5.78;;;21.90;94.90;;;;;;5037604;28;20493;-78
2022/04/24 11:35:31;;;;;;;15.38;6.32;;;21.80;96.40;;;;;;5039887;28;20073;-78
2022/04/24 11:37:59;;;;;;;14.32;5.50;;;21.80;97.60;;;;;;5038506;28;20049;-77
2022/04/24 11:40:28;;;;;;;11.38;3.50;;;21.80;99.20;;;;;;5037899;28;20116;-77
2022/04/24 11:43:05;;;;;;;10.60;4.47;;;22.00;98.10;;;;;;5037969;28;20042;-77
2022/04/24 11:51:14;;;;;;;7.28;2.72;;;22.00;97.10;;;;;;5053490;28;20444;-76
2022/04/24 11:53:42;;;;;;;11.07;3.47;;;22.30;96.70;;;;;;5041235;28;20076;-76
2022/04/24 11:56:11;;;;;;;6.57;2.35;;;22.50;97.20;;;;;;5039252;28;20033;-77
2022/04/24 11:58:41;;;;;;;7.30;3.20;;;22.80;96.60;;;;;;5038635;28;20073;-77
2022/04/24 12:01:11;;;;;;;10.32;3.30;;;23.00;95.80;;;;;;5042640;28;20106;-77
2022/04/24 12:03:39;;;;;;;5.65;1.63;;;23.30;94.70;;;;;;5046772;28;20105;-77
2022/04/24 12:06:10;;;;;;;5.20;1.60;;;23.70;93.00;;;;;;5047462;28;20501;-77
2022/04/24 12:08:42;;;;;;;5.93;2.03;;;23.70;92.40;;;;;;5043796;28;20114;-77
2022/04/24 12:11:10;;;;;;;5.90;2.40;;;23.70;92.00;;;;;;5042848;28;20050;-77
2022/04/24 12:13:38;;;;;;;6.90;1.63;;;24.00;91.70;;;;;;5045772;28;20051;-77
2022/04/24 12:16:07;;;;;;;4.57;1.50;;;24.00;90.30;;;;;;5050658;28;20111;-76
2022/04/24 12:18:35;;;;;;;7.22;1.58;;;23.90;90.60;;;;;;5050795;28;20046;-77
2022/04/24 12:21:02;;;;;;;7.50;1.98;;;23.90;90.70;;;;;;5070714;28;20056;-77
2022/04/24 12:23:31;;;;;;;5.68;2.20;;;24.00;90.60;;;;;;5053788;28;20050;-77
2022/04/24 12:26:02;;;;;;;5.70;2.25;;;24.20;90.00;;;;;;5054666;28;20038;-77
2022/04/24 12:28:32;;;;;;;7.38;2.35;;;24.50;89.50;;;;;;5053610;28;20045;-77
2022/04/24 12:31:01;;;;;;;6.43;2.00;;;24.40;88.30;;;;;;5052078;28;20045;-78
2022/04/24 12:33:30;;;;;;;3.65;1.67;;;24.10;87.30;;;;;;5047110;28;20042;-77
2022/04/24 12:36:09;;;;;;;4.05;1.70;;;24.10;88.70;;;;;;5048948;28;20046;-77
2022/04/24 12:38:36;;;;;;;4.97;1.83;;;24.30;88.30;;;;;;5046156;28;20046;-77
2022/04/24 12:41:08;;;;;;;4.65;1.60;;;24.30;87.40;;;;;;5037034;28;20096;-78
2022/04/24 12:43:36;;;;;;;7.47;1.77;;;23.90;87.90;;;;;;5036920;28;20493;-77
2022/04/24 12:46:05;;;;;;;6.18;1.70;;;23.60;89.20;;;;;;5039142;28;20045;-78
2022/04/24 12:48:45;;;;;;;5.78;1.85;;;23.40;90.10;;;;;;5038289;28;20083;-77
2022/04/24 12:51:13;;;;;;;9.20;2.10;;;23.80;90.50;;;;;;5037497;28;20111;-77